createdAt,value
2023-01-02T00:01:02.238Z,100.00
2023-01-02T00:03:30.557Z,100.00
2023-01-02T00:06:02.523Z,100.00
2023-01-02T00:08:30.809Z,100.00
2023-01-02T00:10:58.689Z,100.00
2023-01-02T00:13:26.723Z,100.00
2023-01-02T00:15:54.594Z,100.00
2023-01-02T00:18:22.822Z,100.00
2023-01-02T00:20:50.558Z,100.00
2023-01-02T00:23:20.004Z,100.00
2023-01-02T00:25:48.819Z,100.00
2023-01-02T00:28:17.084Z,100.00
2023-01-02T00:30:44.855Z,100.00
2023-01-02T00:33:12.956Z,100.00
2023-01-02T00:35:40.678Z,100.00
2023-01-02T00:38:08.869Z,100.00
2023-01-02T00:40:38.141Z,100.00
2023-01-02T00:43:06.080Z,100.00
2023-01-02T00:45:34.077Z,100.00
2023-01-02T00:48:02.241Z,100.00
2023-01-02T00:50:30.191Z,100.00
2023-01-02T00:52:58.364Z,100.00
2023-01-02T00:55:26.137Z,100.00
2023-01-02T00:57:55.442Z,100.00
2023-01-02T01:00:24.315Z,100.00
2023-01-02T01:02:56.959Z,100.00
2023-01-02T01:05:25.563Z,100.00
2023-01-02T01:07:55.490Z,100.00
2023-01-02T01:10:23.916Z,100.00
2023-01-02T01:12:52.602Z,100.00
2023-01-02T01:15:21.757Z,100.00
2023-01-02T01:17:49.843Z,100.00
2023-01-02T01:20:18.050Z,100.00
2023-01-02T01:22:46.056Z,100.00
2023-01-02T01:25:14.187Z,100.00
2023-01-02T01:27:42.503Z,100.00
2023-01-02T01:30:11.518Z,100.00
2023-01-02T01:32:40.915Z,100.00
2023-01-02T01:35:09.444Z,100.00
2023-01-02T01:37:39.196Z,100.00
2023-01-02T01:40:08.385Z,100.00
2023-01-02T01:42:37.018Z,100.00
2023-01-02T01:45:13.218Z,100.00
2023-01-02T01:47:46.111Z,100.00
2023-01-02T01:50:18.221Z,100.00
2023-01-02T01:52:51.330Z,100.00
2023-01-02T01:55:22.769Z,100.00
2023-01-02T01:57:54.362Z,100.00
2023-01-02T02:00:22.491Z,100.00
2023-01-02T02:02:58.067Z,100.00
2023-01-02T02:05:30.034Z,100.00
2023-01-02T02:08:05.199Z,100.00
2023-01-02T02:10:33.436Z,100.00
2023-01-02T02:13:01.549Z,100.00
2023-01-02T02:15:48.753Z,100.00
2023-01-02T02:18:30.308Z,100.00
2023-01-02T02:21:06.127Z,100.00
2023-01-02T02:24:03.494Z,100.00
2023-01-02T02:27:07.176Z,100.00
2023-01-02T02:30:03.975Z,100.00
2023-01-02T02:32:49.128Z,100.00
2023-01-02T02:35:29.646Z,100.00
2023-01-02T02:38:05.419Z,100.00
2023-01-02T02:40:42.883Z,100.00
2023-01-02T02:43:18.764Z,100.00
2023-01-02T02:45:55.104Z,100.00
2023-01-02T02:48:32.346Z,100.00
2023-01-02T02:51:05.333Z,100.00
2023-01-02T02:53:37.036Z,100.00
2023-01-02T02:56:10.738Z,100.00
2023-01-02T02:58:39.805Z,100.00
2023-01-02T03:01:15.511Z,100.00
2023-01-02T03:03:43.688Z,100.00
2023-01-02T03:06:26.455Z,100.00
2023-01-02T03:09:09.578Z,100.00
2023-01-02T03:11:48.717Z,100.00
2023-01-02T03:14:25.495Z,100.00
2023-01-02T03:17:01.887Z,100.00
2023-01-02T03:19:38.895Z,100.00
2023-01-02T03:22:13.177Z,100.00
2023-01-02T03:24:44.100Z,100.00
2023-01-02T03:27:21.919Z,100.00
2023-01-02T03:29:53.290Z,100.00
2023-01-02T03:32:27.753Z,100.00
2023-01-02T03:34:55.755Z,100.00
2023-01-02T03:37:27.653Z,100.00
2023-01-02T03:39:58.704Z,100.00
2023-01-02T03:42:30.192Z,100.00
2023-01-02T03:45:03.661Z,100.00
2023-01-02T03:47:39.560Z,100.00
2023-01-02T03:50:13.241Z,100.00
2023-01-02T03:52:41.535Z,100.00
2023-01-02T03:55:10.415Z,100.00
2023-01-02T03:57:56.980Z,100.00
2023-01-02T04:00:32.108Z,100.00
2023-01-02T04:03:06.002Z,100.00
2023-01-02T04:05:41.541Z,100.00
2023-01-02T04:08:16.379Z,100.00
2023-01-02T04:10:48.976Z,100.00
2023-01-02T04:13:23.023Z,100.00
2023-01-02T04:15:53.596Z,100.00
2023-01-02T04:18:27.350Z,100.00
2023-01-02T04:20:58.531Z,100.00
2023-01-02T04:23:30.867Z,100.00
2023-01-02T04:26:01.638Z,100.00
2023-01-02T04:28:32.038Z,100.00
2023-01-02T04:31:06.681Z,100.00
2023-01-02T04:33:40.970Z,100.00
2023-01-02T04:36:10.168Z,100.00
2023-01-02T04:38:38.789Z,100.00
2023-01-02T04:41:08.113Z,100.00
2023-01-02T04:43:36.250Z,100.00
2023-01-02T04:46:04.352Z,100.00
2023-01-02T04:48:32.343Z,100.00
2023-01-02T04:51:01.557Z,100.00
2023-01-02T04:53:29.693Z,100.00
2023-01-02T04:55:57.764Z,100.00
2023-01-02T04:58:27.980Z,100.00
2023-01-02T05:00:56.092Z,100.00
2023-01-02T05:03:24.148Z,100.00
2023-01-02T05:05:52.206Z,100.00
2023-01-02T05:08:21.505Z,100.00
2023-01-02T05:10:49.196Z,100.00
2023-01-02T05:13:17.903Z,100.00
2023-01-02T05:15:45.665Z,100.00
2023-01-02T05:18:13.637Z,100.00
2023-01-02T05:20:41.645Z,100.00
2023-01-02T05:23:29.867Z,100.00
2023-01-02T05:25:59.234Z,100.00
2023-01-02T05:28:27.215Z,100.00
2023-01-02T05:30:54.947Z,100.00
2023-01-02T05:33:23.234Z,100.00
2023-01-02T05:35:50.940Z,100.00
2023-01-02T05:38:18.900Z,100.00
2023-01-02T05:40:46.847Z,100.00
2023-01-02T05:43:16.176Z,100.00
2023-01-02T05:45:43.858Z,100.00
2023-01-02T05:48:12.060Z,100.00
2023-01-02T05:50:39.803Z,100.00
2023-01-02T05:53:07.800Z,100.00
2023-01-02T05:55:35.703Z,100.00
2023-01-02T05:58:03.777Z,100.00
2023-01-02T06:00:32.814Z,100.00
2023-01-02T06:03:01.157Z,100.00
2023-01-02T06:05:29.189Z,100.00
2023-01-02T06:07:57.275Z,100.00
2023-01-02T06:10:25.428Z,100.00
2023-01-02T06:12:53.422Z,100.00
2023-01-02T06:15:21.207Z,100.00
2023-01-02T06:17:50.665Z,100.00
2023-01-02T06:20:18.414Z,100.00
2023-01-02T06:22:46.568Z,100.00
2023-01-02T06:25:14.464Z,100.00
2023-01-02T06:27:42.501Z,100.00
2023-01-02T06:30:11.176Z,100.00
2023-01-02T06:32:39.421Z,100.00
2023-01-02T06:35:09.528Z,100.00
2023-01-02T06:37:37.550Z,100.00
2023-01-02T06:40:06.354Z,100.00
2023-01-02T06:42:34.327Z,100.00
2023-01-02T06:45:02.182Z,100.00
2023-01-02T06:47:30.341Z,100.00
2023-01-02T06:49:58.082Z,100.00
2023-01-02T06:52:28.571Z,100.00
2023-01-02T06:54:56.576Z,100.00
2023-01-02T06:57:24.637Z,100.00
2023-01-02T06:59:52.642Z,100.00
2023-01-02T07:02:20.766Z,100.00
2023-01-02T07:04:48.587Z,100.00
2023-01-02T07:07:16.683Z,100.00
2023-01-02T07:09:45.823Z,100.00
2023-01-02T07:12:14.033Z,100.00
2023-01-02T07:14:41.795Z,100.00
2023-01-02T07:17:09.869Z,100.00
2023-01-02T07:19:37.582Z,100.00
2023-01-02T07:22:05.650Z,100.00
2023-01-02T07:24:33.412Z,100.00
2023-01-02T07:27:02.787Z,100.00
2023-01-02T07:29:30.599Z,100.00
2023-01-02T07:31:58.765Z,100.00
2023-01-02T07:34:26.464Z,100.00
2023-01-02T07:36:54.443Z,100.00
2023-01-02T07:39:23.542Z,100.00
2023-01-02T07:41:51.489Z,100.00
2023-01-02T07:44:20.518Z,100.00
2023-01-02T07:46:48.694Z,100.00
2023-01-02T07:49:16.432Z,100.00
2023-01-02T07:51:44.574Z,100.00
2023-01-02T07:54:12.462Z,100.00
2023-01-02T07:56:40.517Z,100.00
2023-01-02T07:59:08.446Z,100.00
2023-01-02T08:01:38.140Z,100.00
2023-01-02T08:04:06.142Z,100.00
2023-01-02T08:06:34.747Z,100.00
2023-01-02T08:09:02.612Z,100.00
2023-01-02T08:14:23.428Z,100.00
2023-01-02T08:16:53.406Z,100.00
2023-01-02T08:19:21.316Z,100.00
2023-01-02T08:21:49.303Z,100.00
2023-01-02T08:24:17.110Z,100.00
2023-01-02T08:26:45.197Z,100.00
2023-01-02T08:29:12.939Z,100.00
2023-01-02T08:31:43.914Z,100.00
2023-01-02T08:34:15.008Z,100.00
2023-01-02T08:36:43.428Z,100.00
2023-01-02T08:39:11.220Z,100.00
2023-01-02T08:41:41.188Z,100.00
2023-01-02T08:44:09.051Z,100.00
2023-01-02T08:46:42.587Z,100.00
2023-01-02T08:49:11.240Z,100.00
2023-01-02T08:51:40.671Z,100.00
2023-01-02T08:54:08.395Z,100.00
2023-01-02T08:56:37.654Z,100.00
2023-01-02T08:59:07.397Z,100.00
2023-01-02T09:01:36.485Z,100.00
2023-01-02T09:04:11.839Z,100.00
2023-01-02T09:06:44.226Z,100.00
2023-01-02T09:09:13.298Z,100.00
2023-01-02T09:11:46.563Z,100.00
2023-01-02T09:14:14.528Z,100.00
2023-01-02T09:16:42.841Z,100.00
2023-01-02T09:19:10.592Z,100.00
2023-01-02T09:21:38.893Z,100.00
2023-01-02T09:24:09.294Z,100.00
2023-01-02T09:26:41.530Z,100.00
2023-01-02T09:29:10.142Z,100.00
2023-01-02T09:31:38.419Z,100.00
2023-01-02T09:34:06.161Z,100.00
2023-01-02T09:36:34.671Z,100.00
2023-01-02T09:39:02.862Z,100.00
2023-01-02T09:41:37.881Z,100.00
2023-01-02T09:44:14.519Z,100.00
2023-01-02T09:46:47.627Z,100.00
2023-01-02T09:49:19.335Z,100.00
2023-01-02T09:51:47.805Z,100.00
2023-01-02T09:54:21.138Z,100.00
2023-01-02T09:56:57.071Z,100.00
2023-01-02T09:59:30.141Z,96.02
2023-01-02T10:02:11.838Z,95.28
2023-01-02T10:04:55.560Z,94.99
2023-01-02T10:07:30.990Z,91.76
2023-01-02T10:10:04.420Z,90.47
2023-01-02T10:12:43.345Z,89.63
2023-01-02T10:15:16.714Z,89.52
2023-01-02T10:17:49.512Z,87.70
2023-01-02T10:20:24.211Z,85.90
2023-01-02T10:22:56.690Z,80.88
2023-01-02T10:25:30.207Z,80.60
2023-01-02T10:28:18.769Z,82.15
2023-01-02T10:30:53.258Z,81.56
2023-01-02T10:33:27.908Z,82.58
2023-01-02T10:36:00.970Z,86.74
2023-01-02T10:38:35.675Z,88.27
2023-01-02T10:41:04.220Z,88.12
2023-01-02T10:43:37.072Z,87.05
2023-01-02T10:46:05.825Z,86.53
2023-01-02T10:48:38.163Z,86.73
2023-01-02T10:51:12.531Z,84.04
2023-01-02T10:53:41.021Z,84.65
2023-01-02T10:56:18.294Z,85.31
2023-01-02T10:58:50.253Z,84.84
2023-01-02T11:01:20.314Z,85.39
2023-01-02T11:03:50.902Z,86.17
2023-01-02T11:06:35.184Z,88.43
2023-01-02T11:09:18.813Z,89.35
2023-01-02T11:11:51.031Z,91.06
2023-01-02T11:14:24.502Z,92.71
2023-01-02T11:16:52.641Z,95.02
2023-01-02T11:19:29.143Z,94.88
2023-01-02T11:21:57.265Z,93.76
2023-01-02T11:24:28.427Z,91.73
2023-01-02T11:26:58.442Z,93.27
2023-01-02T11:29:31.523Z,93.39
2023-01-02T11:32:02.096Z,93.18
2023-01-02T11:34:36.915Z,92.48
2023-01-02T11:37:07.651Z,92.21
2023-01-02T11:39:35.921Z,90.97
2023-01-02T11:42:35.186Z,89.96
2023-01-02T11:45:09.165Z,88.04
2023-01-02T11:47:40.485Z,87.24
2023-01-02T11:50:14.789Z,89.49
2023-01-02T11:52:49.845Z,92.05
2023-01-02T11:55:32.760Z,92.30
2023-01-02T11:58:06.627Z,93.07
2023-01-02T12:00:39.306Z,93.69
2023-01-02T12:03:18.253Z,94.44
2023-01-02T12:06:03.184Z,95.49
2023-01-02T12:08:51.289Z,95.14
2023-01-02T12:11:34.288Z,94.70
2023-01-02T12:14:11.586Z,94.38
2023-01-02T12:16:50.087Z,93.65
2023-01-02T12:19:39.448Z,93.09
2023-01-02T12:22:22.184Z,93.61
2023-01-02T12:25:03.198Z,94.02
2023-01-02T12:27:37.674Z,94.60
2023-01-02T12:30:10.077Z,95.50
2023-01-02T12:32:56.126Z,95.88
2023-01-02T12:35:43.151Z,96.12
2023-01-02T12:38:20.992Z,95.49
2023-01-02T12:40:58.813Z,95.27
2023-01-02T12:43:51.979Z,95.97
2023-01-02T12:46:35.225Z,95.70
2023-01-02T12:49:21.807Z,95.94
2023-01-02T12:52:00.416Z,96.49
2023-01-02T12:54:45.217Z,96.81
2023-01-02T12:57:22.715Z,97.09
2023-01-02T13:00:23.710Z,96.48
2023-01-02T13:03:07.180Z,96.68
2023-01-02T13:05:43.056Z,97.38
2023-01-02T13:08:18.364Z,97.22
2023-01-02T13:10:47.885Z,98.43
2023-01-02T13:13:17.279Z,99.35
2023-01-02T13:15:48.384Z,100.00
2023-01-02T13:18:21.682Z,100.00
2023-01-02T13:20:57.286Z,100.00
2023-01-02T13:23:35.114Z,100.00
2023-01-02T13:26:08.014Z,100.00
2023-01-02T13:28:41.331Z,100.00
2023-01-02T13:31:44.827Z,100.00
2023-01-02T13:34:08.599Z,100.00
2023-01-02T13:36:41.327Z,99.87
2023-01-02T13:39:19.330Z,99.50
2023-01-02T13:42:09.452Z,98.72
2023-01-02T13:44:41.895Z,98.38
2023-01-02T13:47:19.174Z,97.58
2023-01-02T13:49:57.319Z,97.12
2023-01-02T13:52:27.624Z,96.14
2023-01-02T13:55:12.470Z,96.05
2023-01-02T13:57:40.496Z,95.72
2023-01-02T14:00:34.755Z,95.59
2023-01-02T14:03:34.609Z,95.26
2023-01-02T14:06:04.523Z,95.35
2023-01-02T14:08:35.347Z,95.31
2023-01-02T14:11:09.735Z,95.23
2023-01-02T14:13:41.106Z,95.79
2023-01-02T14:16:20.903Z,95.42
2023-01-02T14:19:05.224Z,95.30
2023-01-02T14:21:36.005Z,95.49
2023-01-02T14:24:17.613Z,95.12
2023-01-02T14:26:52.312Z,94.97
2023-01-02T14:29:21.519Z,95.02
2023-01-02T14:31:49.357Z,94.86
2023-01-02T14:34:24.934Z,94.67
2023-01-02T14:36:54.778Z,94.26
2023-01-02T14:39:27.803Z,92.70
2023-01-02T14:42:31.707Z,93.53
2023-01-02T14:45:05.074Z,93.97
2023-01-02T14:47:37.948Z,93.99
2023-01-02T14:50:12.748Z,94.22
2023-01-02T14:52:45.371Z,94.58
2023-01-02T14:55:19.321Z,94.14
2023-01-02T14:57:49.865Z,94.77
2023-01-02T15:00:24.833Z,95.02
2023-01-02T15:02:58.959Z,96.43
2023-01-02T15:05:36.045Z,96.31
2023-01-02T15:08:08.212Z,94.57
2023-01-02T15:10:56.117Z,94.64
2023-01-02T15:13:26.808Z,93.65
2023-01-02T15:15:59.482Z,93.12
2023-01-02T15:18:30.350Z,92.55
2023-01-02T15:21:06.879Z,91.42
2023-01-02T15:23:35.248Z,90.52
2023-01-02T15:26:32.481Z,92.69
2023-01-02T15:29:03.313Z,94.71
2023-01-02T15:31:31.876Z,95.75
2023-01-02T15:34:01.133Z,96.21
2023-01-02T15:36:35.601Z,96.46
2023-01-02T15:39:12.539Z,97.12
2023-01-02T15:41:49.105Z,97.65
2023-01-02T15:44:40.924Z,97.15
2023-01-02T15:47:10.285Z,98.74
2023-01-02T15:49:40.639Z,98.55
2023-01-02T15:52:17.058Z,96.78
2023-01-02T15:54:45.020Z,99.74
2023-01-02T15:57:16.194Z,100.00
2023-01-02T15:59:44.186Z,100.00
2023-01-02T16:02:19.084Z,100.00
2023-01-02T16:04:47.209Z,99.09
2023-01-02T16:07:23.068Z,98.90
2023-01-02T16:09:56.455Z,98.25
2023-01-02T16:12:25.859Z,97.77
2023-01-02T16:14:56.823Z,97.19
2023-01-02T16:17:28.630Z,97.70
2023-01-02T16:19:59.790Z,97.36
2023-01-02T16:22:31.759Z,96.92
2023-01-02T16:25:05.713Z,96.49
2023-01-02T16:27:41.912Z,95.84
2023-01-02T16:30:28.385Z,95.96
2023-01-02T16:32:58.068Z,96.66
2023-01-02T16:35:28.522Z,97.14
2023-01-02T16:37:57.905Z,97.93
2023-01-02T16:41:00.946Z,97.71
2023-01-02T16:43:36.781Z,96.89
2023-01-02T16:46:13.199Z,96.75
2023-01-02T16:48:43.783Z,96.83
2023-01-02T16:51:14.935Z,97.33
2023-01-02T16:53:45.460Z,97.68
2023-01-02T16:56:14.456Z,97.18
2023-01-02T16:58:43.921Z,97.57
2023-01-02T17:01:13.983Z,97.63
2023-01-02T17:03:43.351Z,97.58
2023-01-02T17:06:13.825Z,97.15
2023-01-02T17:08:42.410Z,97.33
2023-01-02T17:11:15.777Z,97.56
2023-01-02T17:13:45.428Z,98.16
2023-01-02T17:16:13.284Z,98.83
2023-01-02T17:18:41.285Z,98.02
2023-01-02T17:21:09.076Z,98.00
2023-01-02T17:23:37.172Z,98.40
2023-01-02T17:26:05.600Z,98.71
2023-01-02T17:28:33.677Z,98.60
2023-01-02T17:31:02.780Z,98.72
2023-01-02T17:33:30.828Z,96.79
2023-01-02T17:35:58.606Z,96.91
2023-01-02T17:38:26.699Z,96.28
2023-01-02T17:40:57.674Z,95.86
2023-01-02T17:43:26.379Z,95.72
2023-01-02T17:45:54.787Z,95.52
2023-01-02T17:48:24.867Z,96.30
2023-01-02T17:50:53.836Z,95.41
2023-01-02T17:53:22.369Z,96.41
2023-01-02T17:56:20.547Z,97.07
2023-01-02T17:58:43.087Z,96.27
2023-01-02T18:01:15.673Z,96.67
2023-01-02T18:03:45.281Z,96.60
2023-01-02T18:06:12.978Z,96.63
2023-01-02T18:08:41.169Z,97.75
2023-01-02T18:11:10.540Z,98.04
2023-01-02T18:13:43.153Z,98.30
2023-01-02T18:16:14.572Z,99.76
2023-01-02T18:18:45.767Z,100.00
2023-01-02T18:21:15.986Z,100.00
2023-01-02T18:23:45.135Z,100.00
2023-01-02T18:26:14.536Z,100.00
2023-01-02T18:28:50.429Z,100.00
2023-01-02T18:31:20.668Z,100.00
2023-01-02T18:33:52.626Z,100.00
2023-01-02T18:36:22.838Z,100.00
2023-01-02T18:38:58.267Z,100.00
2023-01-02T18:41:27.807Z,100.00
2023-01-02T18:44:01.868Z,100.00
2023-01-02T18:47:03.028Z,100.00
2023-01-02T18:49:26.827Z,100.00
2023-01-02T18:52:07.690Z,100.00
2023-01-02T18:54:35.811Z,100.00
2023-01-02T18:57:14.558Z,100.00
2023-01-02T18:59:44.285Z,100.00
2023-01-02T19:02:26.706Z,100.00
2023-01-02T19:04:57.179Z,100.00
2023-01-02T19:07:29.020Z,100.00
2023-01-02T19:10:09.423Z,100.00
2023-01-02T19:13:06.471Z,100.00
2023-01-02T19:15:40.529Z,100.00
2023-01-02T19:18:27.398Z,100.00
2023-01-02T19:21:03.169Z,100.00
2023-01-02T19:23:32.886Z,100.00
2023-01-02T19:26:15.117Z,100.00
2023-01-02T19:28:50.045Z,100.00
2023-01-02T19:31:18.125Z,100.00
2023-01-02T19:33:52.568Z,100.00
2023-01-02T19:36:26.078Z,100.00
2023-01-02T19:38:53.933Z,100.00
2023-01-02T19:41:42.526Z,100.00
2023-01-02T19:44:10.815Z,100.00
2023-01-02T19:46:38.966Z,100.00
2023-01-02T19:49:06.674Z,100.00
2023-01-02T19:51:36.159Z,100.00
2023-01-02T19:54:04.623Z,100.00
2023-01-02T19:56:33.117Z,100.00
2023-01-02T19:59:00.987Z,100.00
2023-01-02T20:01:29.122Z,100.00
2023-01-02T20:03:57.603Z,100.00
2023-01-02T20:06:26.011Z,100.00
2023-01-02T20:08:55.154Z,100.00
2023-01-02T20:11:40.779Z,100.00
2023-01-02T20:14:08.627Z,100.00
2023-01-02T20:16:36.768Z,100.00
2023-01-02T20:19:05.010Z,100.00
2023-01-02T20:21:33.154Z,100.00
2023-01-02T20:24:02.279Z,100.00
2023-01-02T20:26:30.246Z,100.00
2023-01-02T20:28:58.058Z,100.00
2023-01-02T20:31:26.175Z,100.00
2023-01-02T20:33:54.075Z,100.00
2023-01-02T20:36:22.242Z,100.00
2023-01-02T20:38:50.274Z,100.00
2023-01-02T20:41:19.684Z,100.00
2023-01-02T20:43:47.916Z,100.00
2023-01-02T20:46:15.984Z,100.00
2023-01-02T20:48:43.970Z,100.00
2023-01-02T20:51:12.083Z,100.00
2023-01-02T20:53:39.763Z,100.00
2023-01-02T20:56:08.842Z,100.00
2023-01-02T20:58:38.306Z,100.00
2023-01-02T21:01:06.799Z,100.00
2023-01-02T21:03:34.649Z,100.00
2023-01-02T21:06:02.925Z,100.00
2023-01-02T21:08:30.702Z,100.00
2023-01-02T21:10:58.671Z,100.00
2023-01-02T21:13:26.555Z,100.00
2023-01-02T21:15:56.989Z,100.00
2023-01-02T21:18:26.826Z,100.00
2023-01-02T21:20:56.593Z,100.00
2023-01-02T21:23:25.682Z,100.00
2023-01-02T21:25:54.371Z,100.00
2023-01-02T21:28:23.103Z,100.00
2023-01-02T21:30:52.046Z,100.00
2023-01-02T21:33:23.220Z,100.00
2023-01-02T21:35:53.002Z,100.00
2023-01-02T21:38:22.330Z,100.00
2023-01-02T21:40:51.678Z,100.00
2023-01-02T21:43:19.998Z,100.00
2023-01-02T21:45:48.380Z,100.00
2023-01-02T21:48:16.094Z,100.00
2023-01-02T21:50:45.434Z,100.00
2023-01-02T21:53:16.679Z,100.00
2023-01-02T21:55:44.723Z,100.00
2023-01-02T21:58:13.733Z,100.00
2023-01-02T22:00:42.479Z,100.00
2023-01-02T22:03:10.562Z,100.00
2023-01-02T22:05:39.000Z,100.00
2023-01-02T22:08:08.693Z,100.00
2023-01-02T22:10:36.680Z,100.00
2023-01-02T22:13:04.349Z,100.00
2023-01-02T22:15:32.457Z,100.00
2023-01-02T22:18:00.204Z,100.00
2023-01-02T22:20:28.232Z,100.00
2023-01-02T22:22:56.119Z,100.00
2023-01-02T22:25:25.444Z,100.00
2023-01-02T22:27:53.209Z,100.00
2023-01-02T22:30:29.420Z,100.00
2023-01-02T22:33:01.646Z,100.00
2023-01-02T22:35:29.844Z,100.00
2023-01-02T22:37:59.356Z,100.00
2023-01-02T22:40:29.763Z,100.00
2023-01-02T22:43:06.135Z,100.00
2023-01-02T22:45:40.548Z,100.00
2023-01-02T22:48:15.971Z,100.00
2023-01-02T22:50:46.303Z,100.00
2023-01-02T22:53:19.491Z,100.00
2023-01-02T22:55:49.705Z,100.00
2023-01-02T22:58:18.137Z,100.00
2023-01-02T23:00:47.836Z,100.00
2023-01-02T23:03:16.863Z,100.00
2023-01-02T23:05:45.292Z,100.00
2023-01-02T23:08:13.131Z,100.00
2023-01-02T23:10:41.110Z,100.00
2023-01-02T23:13:10.159Z,100.00
2023-01-02T23:15:58.630Z,100.00
2023-01-02T23:18:44.080Z,100.00
2023-01-02T23:21:12.416Z,100.00
2023-01-02T23:23:40.154Z,100.00
2023-01-02T23:26:08.589Z,100.00
2023-01-02T23:29:06.030Z,100.00
2023-01-02T23:31:25.892Z,100.00
2023-01-02T23:33:53.781Z,100.00
2023-01-02T23:36:21.968Z,100.00
2023-01-02T23:38:49.872Z,100.00
2023-01-02T23:41:17.876Z,100.00
2023-01-02T23:43:46.977Z,100.00
2023-01-02T23:46:15.024Z,100.00
2023-01-02T23:48:42.770Z,100.00
2023-01-02T23:51:10.745Z,100.00
2023-01-02T23:53:38.697Z,100.00
2023-01-02T23:56:17.724Z,100.00
2023-01-02T23:58:47.547Z,100.00
